createdAt,value
2019-04-26T00:00:39.896Z,987.02
2019-04-26T00:01:39.884Z,987.04
2019-04-26T00:02:39.885Z,987.11
2019-04-26T00:03:39.862Z,987.12
2019-04-26T00:04:39.870Z,987.16
2019-04-26T00:05:39.855Z,987.25
2019-04-26T00:06:39.831Z,987.25
2019-04-26T00:07:39.816Z,987.25
2019-04-26T00:08:39.805Z,987.32
2019-04-26T00:09:39.792Z,987.35
2019-04-26T00:10:39.807Z,987.37
2019-04-26T00:11:39.771Z,987.39
2019-04-26T00:12:39.766Z,987.49
2019-04-26T00:13:39.767Z,987.53
2019-04-26T00:14:39.737Z,987.54
2019-04-26T00:15:39.724Z,987.57
2019-04-26T00:16:39.738Z,987.59
2019-04-26T00:17:39.708Z,987.62
2019-04-26T00:18:39.699Z,987.57
2019-04-26T00:19:39.679Z,987.64
2019-04-26T00:20:39.691Z,987.67
2019-04-26T00:21:39.662Z,987.66
2019-04-26T00:22:39.671Z,987.71
2019-04-26T00:23:39.638Z,987.70
2019-04-26T00:24:39.651Z,987.67
2019-04-26T00:25:39.611Z,987.60
2019-04-26T00:26:39.600Z,987.56
2019-04-26T00:27:39.593Z,987.53
2019-04-26T00:28:39.597Z,987.53
2019-04-26T00:29:39.577Z,987.50
2019-04-26T00:30:39.558Z,987.50
2019-04-26T00:31:39.556Z,987.49
2019-04-26T00:32:39.531Z,987.48
2019-04-26T00:33:39.530Z,987.45
2019-04-26T00:34:39.529Z,987.51
2019-04-26T00:35:47.321Z,987.56
2019-04-26T00:36:40.489Z,987.68
2019-04-26T00:37:39.479Z,987.71
2019-04-26T00:38:39.467Z,987.74
2019-04-26T00:39:39.457Z,987.78
2019-04-26T00:40:39.474Z,987.75
2019-04-26T00:41:39.430Z,987.79
2019-04-26T00:42:39.421Z,987.75
2019-04-26T00:43:39.408Z,987.79
2019-04-26T00:44:39.397Z,987.80
2019-04-26T00:45:39.389Z,987.82
2019-04-26T00:46:39.395Z,987.81
2019-04-26T00:47:39.364Z,987.83
2019-04-26T00:48:39.355Z,987.84
2019-04-26T00:49:43.739Z,987.84
2019-04-26T00:50:39.328Z,987.83
2019-04-26T00:51:39.319Z,987.80
2019-04-26T00:52:39.426Z,987.80
2019-04-26T00:53:39.300Z,987.84
2019-04-26T00:54:39.298Z,987.80
2019-04-26T00:55:39.276Z,987.81
2019-04-26T00:56:39.267Z,987.92
2019-04-26T00:57:39.251Z,987.94
2019-04-26T00:58:39.255Z,987.89
2019-04-26T00:59:39.230Z,987.87
2019-04-26T01:00:39.224Z,987.90
2019-04-26T01:01:39.207Z,987.98
2019-04-26T01:02:39.200Z,987.99
2019-04-26T01:03:39.181Z,988.02
2019-04-26T01:04:39.185Z,988.05
2019-04-26T01:05:39.157Z,988.10
2019-04-26T01:06:39.145Z,988.07
2019-04-26T01:07:39.153Z,988.08
2019-04-26T01:08:39.151Z,988.08
2019-04-26T01:09:39.112Z,988.06
2019-04-26T01:10:39.118Z,988.00
2019-04-26T01:11:39.089Z,988.03
2019-04-26T01:12:39.078Z,987.99
2019-04-26T01:13:39.068Z,987.99
2019-04-26T01:14:39.056Z,987.98
2019-04-26T01:15:39.043Z,987.97
2019-04-26T01:16:39.076Z,988.00
2019-04-26T01:17:39.035Z,988.04
2019-04-26T01:18:39.009Z,988.01
2019-04-26T01:19:39.005Z,988.00
2019-04-26T01:20:38.987Z,988.07
2019-04-26T01:21:38.984Z,988.06
2019-04-26T01:22:38.980Z,988.16
2019-04-26T01:23:38.953Z,988.14
2019-04-26T01:24:38.941Z,988.15
2019-04-26T01:25:38.930Z,988.26
2019-04-26T01:26:38.922Z,988.17
2019-04-26T01:27:38.914Z,988.21
2019-04-26T01:28:38.913Z,988.21
2019-04-26T01:29:38.889Z,988.21
2019-04-26T01:30:38.875Z,988.27
2019-04-26T01:31:38.865Z,988.24
2019-04-26T01:32:38.853Z,988.22
2019-04-26T01:33:38.841Z,988.18
2019-04-26T01:34:38.850Z,988.14
2019-04-26T01:35:38.819Z,988.15
2019-04-26T01:36:38.827Z,988.20
2019-04-26T01:37:38.807Z,988.22
2019-04-26T01:38:38.786Z,988.26
2019-04-26T01:39:38.773Z,988.33
2019-04-26T01:40:38.786Z,988.34
2019-04-26T01:41:38.755Z,988.34
2019-04-26T01:42:38.741Z,988.34
2019-04-26T01:43:38.728Z,988.39
2019-04-26T01:44:38.719Z,988.38
2019-04-26T01:45:38.705Z,988.42
2019-04-26T01:46:38.714Z,988.47
2019-04-26T01:47:38.684Z,988.48
2019-04-26T01:48:38.674Z,988.53
2019-04-26T01:49:38.662Z,988.45
2019-04-26T01:50:38.652Z,988.39
2019-04-26T01:51:38.650Z,988.37
2019-04-26T01:52:38.649Z,988.30
2019-04-26T01:53:38.619Z,988.36
2019-04-26T01:54:38.613Z,988.36
2019-04-26T01:55:38.600Z,988.44
2019-04-26T01:56:38.590Z,988.47
2019-04-26T01:57:38.573Z,988.43
2019-04-26T01:58:38.580Z,988.44
2019-04-26T01:59:38.576Z,988.45
2019-04-26T02:00:38.543Z,988.47
2019-04-26T02:01:38.549Z,988.52
2019-04-26T02:02:38.517Z,988.47
2019-04-26T02:03:38.514Z,988.48
2019-04-26T02:04:38.517Z,988.53
2019-04-26T02:05:38.490Z,988.47
2019-04-26T02:06:38.471Z,988.45
2019-04-26T02:07:38.461Z,988.43
2019-04-26T02:08:38.451Z,988.44
2019-04-26T02:09:38.436Z,988.47
2019-04-26T02:10:38.441Z,988.43
2019-04-26T02:11:38.417Z,988.39
2019-04-26T02:12:38.405Z,988.28
2019-04-26T02:13:38.393Z,988.27
2019-04-26T02:14:38.380Z,988.29
2019-04-26T02:15:38.372Z,988.27
2019-04-26T02:16:38.389Z,988.28
2019-04-26T02:17:38.355Z,988.27
2019-04-26T02:18:38.355Z,988.30
2019-04-26T02:19:38.332Z,988.33
2019-04-26T02:20:38.312Z,988.33
2019-04-26T02:21:38.302Z,988.28
2019-04-26T02:22:38.311Z,988.26
2019-04-26T02:23:38.277Z,988.24
2019-04-26T02:24:38.267Z,988.21
2019-04-26T02:25:38.260Z,988.22
2019-04-26T02:26:38.246Z,988.25
2019-04-26T02:27:38.247Z,988.27
2019-04-26T02:28:38.241Z,988.29
2019-04-26T02:29:38.222Z,988.21
2019-04-26T02:30:38.207Z,988.20
2019-04-26T02:31:38.190Z,988.16
2019-04-26T02:32:38.180Z,988.20
2019-04-26T02:33:38.173Z,988.25
2019-04-26T02:34:38.537Z,988.34
2019-04-26T02:35:38.145Z,988.35
2019-04-26T02:36:56.139Z,988.38
2019-04-26T02:37:39.121Z,988.35
2019-04-26T02:38:38.141Z,988.35
2019-04-26T02:39:38.113Z,988.34
2019-04-26T02:40:38.105Z,988.41
2019-04-26T02:41:38.075Z,988.40
2019-04-26T02:42:38.189Z,988.45
2019-04-26T02:43:38.057Z,988.42
2019-04-26T02:44:38.430Z,988.50
2019-04-26T02:45:38.215Z,988.48
2019-04-26T02:46:38.128Z,988.55
2019-04-26T02:47:39.085Z,988.59
2019-04-26T02:48:38.043Z,988.56
2019-04-26T02:49:38.580Z,988.57
2019-04-26T02:50:38.390Z,988.49
2019-04-26T02:51:38.285Z,988.50
2019-04-26T02:52:39.174Z,988.57
2019-04-26T02:53:38.903Z,988.51
2019-04-26T02:54:38.389Z,988.51
2019-04-26T02:55:42.290Z,988.48
2019-04-26T02:56:40.018Z,988.54
2019-04-26T02:57:38.904Z,988.52
2019-04-26T02:58:39.145Z,988.48
2019-04-26T02:59:40.119Z,988.50
2019-04-26T03:00:39.157Z,988.48
2019-04-26T03:01:38.719Z,988.42
2019-04-26T03:02:40.208Z,988.44
2019-04-26T03:03:39.607Z,988.48
2019-04-26T03:04:39.343Z,988.45
2019-04-26T03:05:39.741Z,988.47
2019-04-26T03:06:39.136Z,988.44
2019-04-26T03:07:39.151Z,988.44
2019-04-26T03:08:39.345Z,988.44
2019-04-26T03:09:38.907Z,988.43
2019-04-26T03:10:38.638Z,988.36
2019-04-26T03:11:39.147Z,988.39
2019-04-26T03:12:39.482Z,988.30
2019-04-26T03:13:38.638Z,988.31
2019-04-26T03:14:38.513Z,988.24
2019-04-26T03:15:38.835Z,988.22
2019-04-26T03:16:39.447Z,988.26
2019-04-26T03:17:39.633Z,988.22
2019-04-26T03:18:39.484Z,988.29
2019-04-26T03:19:39.421Z,988.34
2019-04-26T03:20:38.345Z,988.34
2019-04-26T03:21:38.138Z,988.35
2019-04-26T03:22:39.415Z,988.37
2019-04-26T03:23:53.260Z,988.42
2019-04-26T03:24:39.314Z,988.41
2019-04-26T03:25:38.844Z,988.43
2019-04-26T03:26:39.510Z,988.52
2019-04-26T03:27:38.961Z,988.56
2019-04-26T03:28:39.407Z,988.63
2019-04-26T03:29:38.985Z,988.65
2019-04-26T03:30:42.306Z,988.68
2019-04-26T03:31:48.621Z,988.71
2019-04-26T03:32:47.873Z,988.82
2019-04-26T03:33:48.413Z,988.86
2019-04-26T03:34:45.516Z,988.83
2019-04-26T03:35:48.690Z,988.83
2019-04-26T03:36:40.737Z,988.85
2019-04-26T03:37:38.311Z,988.89
2019-04-26T03:38:38.248Z,988.94
2019-04-26T03:39:40.303Z,989.00
2019-04-26T03:40:38.941Z,989.06
2019-04-26T03:41:38.974Z,989.05
2019-04-26T03:42:38.791Z,989.09
2019-04-26T03:43:39.086Z,989.06
2019-04-26T03:44:38.984Z,989.04
2019-04-26T03:45:39.083Z,989.04
2019-04-26T03:46:39.032Z,989.01
2019-04-26T03:47:39.763Z,989.06
2019-04-26T03:48:39.279Z,988.99
2019-04-26T03:49:37.967Z,989.00
2019-04-26T03:50:38.831Z,989.01
2019-04-26T03:51:39.123Z,989.02
2019-04-26T03:52:39.507Z,989.00
2019-04-26T03:53:38.310Z,989.02
2019-04-26T03:54:39.214Z,988.99
2019-04-26T03:55:38.297Z,988.99
2019-04-26T03:56:38.599Z,989.02
2019-04-26T03:57:38.933Z,989.07
2019-04-26T03:58:38.547Z,989.02
2019-04-26T03:59:38.849Z,989.02
2019-04-26T04:00:38.785Z,989.00
2019-04-26T04:01:38.792Z,989.03
2019-04-26T04:02:38.866Z,989.00
2019-04-26T04:03:38.253Z,989.01
2019-04-26T04:04:38.882Z,988.99
2019-04-26T04:05:37.876Z,989.00
2019-04-26T04:06:56.592Z,988.98
2019-04-26T04:07:44.587Z,989.01
2019-04-26T04:08:39.897Z,989.03
2019-04-26T04:09:38.069Z,989.04
2019-04-26T04:10:39.319Z,989.02
2019-04-26T04:11:38.539Z,989.01
2019-04-26T04:12:38.461Z,989.01
2019-04-26T04:13:38.869Z,989.00
2019-04-26T04:14:38.290Z,988.92
2019-04-26T04:15:38.593Z,988.97
2019-04-26T04:16:38.683Z,988.95
2019-04-26T04:17:38.787Z,988.98
2019-04-26T04:18:38.838Z,988.96
2019-04-26T04:19:38.532Z,988.98
2019-04-26T04:20:38.329Z,989.00
2019-04-26T04:21:38.651Z,989.02
2019-04-26T04:22:39.077Z,989.03
2019-04-26T04:23:37.543Z,989.06
2019-04-26T04:24:39.127Z,989.05
2019-04-26T04:25:39.269Z,988.99
2019-04-26T04:26:39.092Z,988.99
2019-04-26T04:27:38.245Z,989.04
2019-04-26T04:28:39.832Z,989.02
2019-04-26T04:29:42.789Z,988.98
2019-04-26T04:30:40.017Z,988.97
2019-04-26T04:31:38.358Z,989.01
2019-04-26T04:32:36.849Z,989.03
2019-04-26T04:33:36.814Z,989.03
2019-04-26T04:34:36.797Z,989.06
2019-04-26T04:35:36.793Z,989.16
2019-04-26T04:36:36.775Z,989.18
2019-04-26T04:37:52.572Z,989.24
2019-04-26T04:38:37.766Z,989.25
2019-04-26T04:39:36.749Z,989.36
2019-04-26T04:40:36.739Z,989.40
2019-04-26T04:41:36.718Z,989.45
2019-04-26T04:42:36.741Z,989.40
2019-04-26T04:43:36.711Z,989.47
2019-04-26T04:44:36.702Z,989.40
2019-04-26T04:45:36.691Z,989.40
2019-04-26T04:46:36.667Z,989.31
2019-04-26T04:47:36.671Z,989.33
2019-04-26T04:48:36.644Z,989.28
2019-04-26T04:49:36.633Z,989.32
2019-04-26T04:50:36.632Z,989.34
2019-04-26T04:51:36.609Z,989.35
2019-04-26T04:52:36.598Z,989.30
2019-04-26T04:53:36.596Z,989.25
2019-04-26T04:54:36.590Z,989.29
2019-04-26T04:55:36.560Z,989.35
2019-04-26T04:56:36.575Z,989.32
2019-04-26T04:57:36.538Z,989.21
2019-04-26T04:58:36.524Z,989.16
2019-04-26T04:59:36.512Z,989.17
2019-04-26T05:00:36.505Z,989.18
2019-04-26T05:01:36.495Z,989.27
2019-04-26T05:02:36.544Z,989.30
2019-04-26T05:03:36.465Z,989.34
2019-04-26T05:04:36.453Z,989.34
2019-04-26T05:05:36.442Z,989.31
2019-04-26T05:06:36.439Z,989.34
2019-04-26T05:07:36.419Z,989.33
2019-04-26T05:08:36.430Z,989.35
2019-04-26T05:09:36.397Z,989.32
2019-04-26T05:10:36.395Z,989.30
2019-04-26T05:11:36.374Z,989.30
2019-04-26T05:12:36.376Z,989.29
2019-04-26T05:13:36.350Z,989.32
2019-04-26T05:14:36.363Z,989.30
2019-04-26T05:15:36.333Z,989.29
2019-04-26T05:16:36.328Z,989.29
2019-04-26T05:17:36.315Z,989.35
2019-04-26T05:18:36.297Z,989.33
2019-04-26T05:19:36.281Z,989.30
2019-04-26T05:20:36.313Z,989.34
2019-04-26T05:21:36.267Z,989.35
2019-04-26T05:22:36.247Z,989.37
2019-04-26T05:23:36.238Z,989.40
2019-04-26T05:24:36.239Z,989.39
2019-04-26T05:25:36.212Z,989.37
2019-04-26T05:26:36.228Z,989.43
2019-04-26T05:27:36.197Z,989.50
2019-04-26T05:28:36.179Z,989.55
2019-04-26T05:29:36.191Z,989.65
2019-04-26T05:30:36.167Z,989.72
2019-04-26T05:31:36.144Z,989.77
2019-04-26T05:32:36.151Z,989.77
2019-04-26T05:33:36.120Z,989.79
2019-04-26T05:34:36.110Z,989.76
2019-04-26T05:35:36.099Z,989.73
2019-04-26T05:36:36.096Z,989.69
2019-04-26T05:37:37.259Z,989.66
2019-04-26T05:38:36.080Z,989.64
2019-04-26T05:39:36.055Z,989.58
2019-04-26T05:40:36.050Z,989.51
2019-04-26T05:41:36.032Z,989.55
2019-04-26T05:42:36.021Z,989.49
2019-04-26T05:43:36.012Z,989.50
2019-04-26T05:44:36.019Z,989.49
2019-04-26T05:45:35.988Z,989.52
2019-04-26T05:46:35.996Z,989.52
2019-04-26T05:47:35.963Z,989.58
2019-04-26T05:48:35.950Z,989.53
2019-04-26T05:49:35.945Z,989.51
2019-04-26T05:50:35.951Z,989.55
2019-04-26T05:51:35.921Z,989.52
2019-04-26T05:52:35.907Z,989.52
2019-04-26T05:53:35.941Z,989.47
2019-04-26T05:54:35.884Z,989.44
2019-04-26T05:55:35.874Z,989.43
2019-04-26T05:56:35.916Z,989.45
2019-04-26T05:57:35.850Z,989.41
2019-04-26T05:58:35.839Z,989.39
2019-04-26T05:59:35.853Z,989.43
2019-04-26T06:00:35.830Z,989.50
2019-04-26T06:01:35.800Z,989.59
2019-04-26T06:02:35.812Z,989.60
2019-04-26T06:03:35.796Z,989.65
2019-04-26T06:04:35.773Z,989.68
2019-04-26T06:05:35.755Z,989.71
2019-04-26T06:06:35.750Z,989.74
2019-04-26T06:07:35.741Z,989.78
2019-04-26T06:08:35.758Z,989.81
2019-04-26T06:09:35.716Z,989.82
2019-04-26T06:10:35.738Z,989.87
2019-04-26T06:11:35.689Z,989.79
2019-04-26T06:12:35.678Z,989.75
2019-04-26T06:13:35.671Z,989.66
2019-04-26T06:14:35.674Z,989.65
2019-04-26T06:15:35.648Z,989.72
2019-04-26T06:16:35.630Z,989.74
2019-04-26T06:17:35.624Z,989.75
2019-04-26T06:18:35.621Z,989.81
2019-04-26T06:19:35.604Z,989.88
2019-04-26T06:20:35.634Z,989.88
2019-04-26T06:21:35.574Z,989.90
2019-04-26T06:22:35.567Z,989.96
2019-04-26T06:23:35.552Z,990.02
2019-04-26T06:24:35.547Z,990.05
2019-04-26T06:25:35.528Z,990.16
2019-04-26T06:26:35.542Z,990.14
2019-04-26T06:27:35.506Z,990.19
2019-04-26T06:28:35.515Z,990.22
2019-04-26T06:29:35.486Z,990.28
2019-04-26T06:30:45.328Z,990.26
2019-04-26T06:31:36.484Z,990.25
2019-04-26T06:32:35.542Z,990.21
2019-04-26T06:33:35.451Z,990.30
2019-04-26T06:34:35.431Z,990.32
2019-04-26T06:35:35.425Z,990.29
2019-04-26T06:36:35.416Z,990.27
2019-04-26T06:37:35.420Z,990.23
2019-04-26T06:38:43.656Z,990.25
2019-04-26T06:39:36.372Z,990.23
2019-04-26T06:40:41.878Z,990.22
2019-04-26T06:41:36.345Z,990.12
2019-04-26T06:42:35.378Z,990.14
2019-04-26T06:43:35.340Z,990.13
2019-04-26T06:44:35.312Z,990.07
2019-04-26T06:45:35.301Z,990.07
2019-04-26T06:46:35.290Z,990.02
2019-04-26T06:47:35.286Z,990.03
2019-04-26T06:48:35.265Z,989.99
2019-04-26T06:49:35.270Z,989.99
2019-04-26T06:50:35.251Z,989.97
2019-04-26T06:51:35.243Z,990.05
2019-04-26T06:52:35.225Z,990.05
2019-04-26T06:53:35.212Z,990.07
2019-04-26T06:54:35.211Z,990.13
2019-04-26T06:55:35.228Z,990.16
2019-04-26T06:56:35.181Z,990.14
2019-04-26T06:57:35.175Z,990.06
2019-04-26T06:58:35.155Z,990.06
2019-04-26T06:59:36.591Z,990.07
2019-04-26T07:00:35.133Z,990.16
2019-04-26T07:01:35.134Z,990.20
2019-04-26T07:02:35.116Z,990.32
2019-04-26T07:03:35.097Z,990.32
2019-04-26T07:04:35.083Z,990.35
2019-04-26T07:05:35.072Z,990.42
2019-04-26T07:06:35.493Z,990.40
2019-04-26T07:07:35.077Z,990.43
2019-04-26T07:08:35.038Z,990.44
2019-04-26T07:09:35.024Z,990.48
2019-04-26T07:10:35.028Z,990.49
2019-04-26T07:11:35.015Z,990.50
2019-04-26T07:12:34.992Z,990.51
2019-04-26T07:13:34.997Z,990.44
2019-04-26T07:14:34.969Z,990.42
2019-04-26T07:15:34.963Z,990.46
2019-04-26T07:16:34.954Z,990.48
2019-04-26T07:17:34.937Z,990.45
2019-04-26T07:18:34.924Z,990.46
2019-04-26T07:19:34.941Z,990.45
2019-04-26T07:20:34.903Z,990.52
2019-04-26T07:21:34.915Z,990.50
2019-04-26T07:22:35.815Z,990.53
2019-04-26T07:23:34.866Z,990.55
2019-04-26T07:24:34.859Z,990.54
2019-04-26T07:25:34.864Z,990.53
2019-04-26T07:26:34.839Z,990.59
2019-04-26T07:27:34.820Z,990.55
2019-04-26T07:28:34.811Z,990.58
2019-04-26T07:29:34.805Z,990.60
2019-04-26T07:30:34.788Z,990.61
2019-04-26T07:31:34.795Z,990.63
2019-04-26T07:32:34.765Z,990.65
2019-04-26T07:33:34.755Z,990.70
2019-04-26T07:34:34.748Z,990.70
2019-04-26T07:35:34.739Z,990.71
2019-04-26T07:36:34.726Z,990.74
2019-04-26T07:37:34.725Z,990.75
2019-04-26T07:38:34.696Z,990.72
2019-04-26T07:39:34.696Z,990.77
2019-04-26T07:40:34.680Z,990.80
2019-04-26T07:41:34.666Z,990.78
2019-04-26T07:42:34.652Z,990.76
2019-04-26T07:43:34.661Z,990.81
2019-04-26T07:44:34.653Z,990.83
2019-04-26T07:45:34.622Z,990.89
2019-04-26T07:46:34.624Z,990.94
2019-04-26T07:47:34.597Z,990.94
2019-04-26T07:48:34.589Z,990.97
2019-04-26T07:49:34.604Z,990.94
2019-04-26T07:50:34.563Z,990.91
2019-04-26T07:51:34.555Z,990.94
2019-04-26T07:52:34.540Z,990.90
2019-04-26T07:53:34.528Z,990.93
2019-04-26T07:54:34.547Z,990.94
2019-04-26T07:55:34.530Z,991.00
2019-04-26T07:56:34.495Z,991.01
2019-04-26T07:57:34.480Z,991.01
2019-04-26T07:58:34.471Z,991.03
2019-04-26T07:59:34.465Z,990.98
2019-04-26T08:00:44.369Z,991.01
2019-04-26T08:01:35.459Z,991.05
2019-04-26T08:02:34.421Z,991.04
2019-04-26T08:03:34.410Z,991.08
2019-04-26T08:04:34.399Z,991.11
2019-04-26T08:05:34.389Z,991.06
2019-04-26T08:06:34.372Z,991.04
2019-04-26T08:07:34.388Z,991.01
2019-04-26T08:08:34.349Z,991.04
2019-04-26T08:09:34.340Z,991.01
2019-04-26T08:10:34.323Z,990.99
2019-04-26T08:11:34.310Z,991.07
2019-04-26T08:12:34.301Z,991.03
2019-04-26T08:13:34.314Z,991.09
2019-04-26T08:14:34.291Z,991.07
2019-04-26T08:15:34.267Z,991.10
2019-04-26T08:16:34.252Z,991.08
2019-04-26T08:17:34.238Z,991.09
2019-04-26T08:18:34.227Z,991.12
2019-04-26T08:19:34.303Z,991.16
2019-04-26T08:20:34.211Z,991.19
2019-04-26T08:21:34.191Z,991.23
2019-04-26T08:22:34.179Z,991.22
2019-04-26T08:23:42.113Z,991.28
2019-04-26T08:24:35.189Z,991.27
2019-04-26T08:25:34.144Z,991.25
2019-04-26T08:26:34.131Z,991.22
2019-04-26T08:27:34.121Z,991.19
2019-04-26T08:28:34.108Z,991.22
2019-04-26T08:29:34.630Z,991.25
2019-04-26T08:30:34.103Z,991.25
2019-04-26T08:31:34.072Z,991.23
2019-04-26T08:32:34.060Z,991.24
2019-04-26T08:33:34.047Z,991.24
2019-04-26T08:34:34.039Z,991.25
2019-04-26T08:35:34.029Z,991.40
2019-04-26T08:36:34.047Z,991.43
2019-04-26T08:37:36.499Z,991.43
2019-04-26T08:38:33.989Z,991.46
2019-04-26T08:39:44.830Z,991.44
2019-04-26T08:40:34.964Z,991.50
2019-04-26T08:41:35.165Z,991.48
2019-04-26T08:42:33.953Z,991.48
2019-04-26T08:43:33.927Z,991.51
2019-04-26T08:44:34.704Z,991.57
2019-04-26T08:45:33.902Z,991.62
2019-04-26T08:46:36.257Z,991.63
2019-04-26T08:47:33.881Z,991.55
2019-04-26T08:48:33.886Z,991.60
2019-04-26T08:49:35.103Z,991.62
2019-04-26T08:50:33.843Z,991.58
2019-04-26T08:51:33.829Z,991.57
2019-04-26T08:52:33.841Z,991.61
2019-04-26T08:53:33.809Z,991.63
2019-04-26T08:54:33.820Z,991.61
2019-04-26T08:55:33.782Z,991.58
2019-04-26T08:56:33.771Z,991.57
2019-04-26T08:57:33.757Z,991.53
2019-04-26T08:58:33.761Z,991.56
2019-04-26T08:59:33.739Z,991.59
2019-04-26T09:00:33.737Z,991.55
2019-04-26T09:01:33.708Z,991.53
2019-04-26T09:02:33.696Z,991.57
2019-04-26T09:03:33.686Z,991.58
2019-04-26T09:04:33.674Z,991.66
2019-04-26T09:05:33.664Z,991.59
2019-04-26T09:06:33.668Z,991.63
2019-04-26T09:07:36.237Z,991.59
2019-04-26T09:08:33.637Z,991.60
2019-04-26T09:09:33.616Z,991.65
2019-04-26T09:10:33.605Z,991.57
2019-04-26T09:11:34.061Z,991.59
2019-04-26T09:12:33.606Z,991.57
2019-04-26T09:13:33.572Z,991.59
2019-04-26T09:14:33.560Z,991.59
2019-04-26T09:15:33.544Z,991.59
2019-04-26T09:16:33.536Z,991.53
2019-04-26T09:17:33.795Z,991.50
2019-04-26T09:18:43.158Z,991.50
2019-04-26T09:19:34.514Z,991.45
2019-04-26T09:20:33.489Z,991.46
2019-04-26T09:21:33.475Z,991.49
2019-04-26T09:22:33.467Z,991.43
2019-04-26T09:23:39.809Z,991.48
2019-04-26T09:24:34.461Z,991.49
2019-04-26T09:25:34.437Z,991.60
2019-04-26T09:26:33.463Z,991.63
2019-04-26T09:27:33.406Z,991.64
2019-04-26T09:28:33.397Z,991.68
2019-04-26T09:29:33.381Z,991.72
2019-04-26T09:30:34.603Z,991.76
2019-04-26T09:31:33.366Z,991.71
2019-04-26T09:32:33.346Z,991.71
2019-04-26T09:33:36.014Z,991.68
2019-04-26T09:34:33.354Z,991.72
2019-04-26T09:35:33.310Z,991.74
2019-04-26T09:36:33.319Z,991.64
2019-04-26T09:37:33.309Z,991.70
2019-04-26T09:38:33.277Z,991.69
2019-04-26T09:39:33.266Z,991.71
2019-04-26T09:40:33.257Z,991.72
2019-04-26T09:41:33.265Z,991.72
2019-04-26T09:42:33.250Z,991.75
2019-04-26T09:43:33.220Z,991.79
2019-04-26T09:44:33.210Z,991.79
2019-04-26T09:45:33.195Z,991.78
2019-04-26T09:46:33.190Z,991.81
2019-04-26T09:47:33.173Z,991.86
2019-04-26T09:48:33.180Z,991.91
2019-04-26T09:49:33.149Z,991.91
2019-04-26T09:50:33.139Z,991.95
2019-04-26T09:51:34.800Z,991.96
2019-04-26T09:52:34.115Z,991.99
2019-04-26T09:53:33.107Z,991.96
2019-04-26T09:54:33.136Z,992.01
2019-04-26T09:55:35.585Z,992.00
2019-04-26T09:56:33.074Z,991.99
2019-04-26T09:57:33.065Z,992.03
2019-04-26T10:00:24.636Z,992.10
2019-04-26T10:01:25.987Z,992.12
2019-04-26T10:02:24.590Z,992.08
2019-04-26T10:03:24.578Z,992.12
2019-04-26T10:04:24.573Z,992.10
2019-04-26T10:05:24.554Z,992.15
2019-04-26T10:06:26.160Z,992.09
2019-04-26T10:07:24.537Z,992.09
2019-04-26T10:08:24.520Z,992.10
2019-04-26T10:09:24.509Z,992.12
2019-04-26T10:10:24.504Z,992.14
2019-04-26T10:11:24.492Z,992.13
2019-04-26T10:12:24.497Z,992.13
2019-04-26T10:13:24.465Z,992.13
2019-04-26T10:14:24.453Z,992.13
2019-04-26T10:15:26.784Z,992.11
2019-04-26T10:16:24.433Z,992.15
2019-04-26T10:17:24.434Z,992.12
2019-04-26T10:18:25.914Z,992.11
2019-04-26T10:19:24.398Z,992.11
2019-04-26T10:20:24.388Z,992.14
2019-04-26T10:21:24.374Z,992.18
2019-04-26T10:22:24.365Z,992.18
2019-04-26T10:23:24.354Z,992.18
2019-04-26T10:24:24.364Z,992.16
2019-04-26T10:25:24.330Z,992.13
2019-04-26T10:26:28.139Z,992.18
2019-04-26T10:27:25.311Z,992.16
2019-04-26T10:28:24.297Z,992.22
2019-04-26T10:29:25.765Z,992.16
2019-04-26T10:30:24.293Z,992.13
2019-04-26T10:31:24.265Z,992.12
2019-04-26T10:32:26.430Z,992.08
2019-04-26T10:33:24.237Z,992.04
2019-04-26T10:34:24.230Z,992.09
2019-04-26T10:35:24.224Z,992.02
2019-04-26T10:36:26.267Z,992.12
2019-04-26T10:37:25.192Z,992.10
2019-04-26T10:38:25.488Z,992.12
2019-04-26T10:39:24.170Z,992.18
2019-04-26T10:40:35.103Z,992.17
2019-04-26T10:41:25.164Z,992.13
2019-04-26T10:42:24.136Z,992.17
2019-04-26T10:43:24.125Z,992.18
2019-04-26T10:44:24.114Z,992.16
2019-04-26T10:45:24.112Z,992.16
2019-04-26T10:46:24.484Z,992.21
2019-04-26T10:47:24.099Z,992.42
2019-04-26T10:48:24.089Z,992.61
2019-04-26T10:49:24.659Z,992.60
2019-04-26T10:50:24.058Z,992.60
2019-04-26T10:51:24.163Z,992.44
2019-04-26T10:52:24.023Z,992.40
2019-04-26T10:53:25.685Z,992.50
2019-04-26T10:54:25.002Z,992.30
2019-04-26T10:55:23.995Z,992.29
2019-04-26T10:56:24.369Z,992.27
2019-04-26T10:57:23.971Z,992.26
2019-04-26T10:58:23.963Z,992.17
2019-04-26T10:59:23.961Z,992.17
2019-04-26T11:00:23.937Z,992.17
2019-04-26T11:01:23.921Z,992.14
2019-04-26T11:02:23.912Z,992.20
2019-04-26T11:03:23.905Z,992.12
2019-04-26T11:04:25.865Z,992.11
2019-04-26T11:05:23.901Z,992.11
2019-04-26T11:06:24.115Z,992.05
2019-04-26T11:07:23.858Z,992.05
2019-04-26T11:08:23.843Z,991.96
2019-04-26T11:09:23.833Z,991.99
2019-04-26T11:10:24.446Z,991.91
2019-04-26T11:11:23.820Z,991.94
2019-04-26T11:12:23.796Z,991.90
2019-04-26T11:13:23.790Z,991.88
2019-04-26T11:14:24.247Z,991.89
2019-04-26T11:15:23.771Z,991.88
2019-04-26T11:16:23.756Z,991.86
2019-04-26T11:17:23.764Z,991.90
2019-04-26T11:18:27.700Z,991.92
2019-04-26T11:19:23.724Z,991.95
2019-04-26T11:20:23.708Z,991.94
2019-04-26T11:21:23.695Z,992.00
2019-04-26T11:22:29.385Z,992.05
2019-04-26T11:23:24.691Z,992.02
2019-04-26T11:24:23.665Z,992.07
2019-04-26T11:25:24.613Z,992.11
2019-04-26T11:26:23.641Z,992.08
2019-04-26T11:27:23.629Z,992.12
2019-04-26T11:28:23.622Z,992.06
2019-04-26T11:29:24.971Z,992.10
2019-04-26T11:30:23.599Z,992.08
2019-04-26T11:31:27.770Z,992.05
2019-04-26T11:32:24.572Z,992.08
2019-04-26T11:33:23.563Z,992.03
2019-04-26T11:34:25.039Z,992.07
2019-04-26T11:35:23.570Z,991.99
2019-04-26T11:36:23.533Z,991.96
2019-04-26T11:37:23.526Z,991.98
2019-04-26T11:38:26.953Z,991.99
2019-04-26T11:39:24.514Z,992.00
2019-04-26T11:40:23.486Z,992.00
2019-04-26T11:41:23.518Z,992.01
2019-04-26T11:42:23.472Z,992.02
2019-04-26T11:43:23.457Z,992.06
2019-04-26T11:44:27.408Z,992.04
2019-04-26T11:45:23.430Z,992.16
2019-04-26T11:46:29.099Z,992.11
2019-04-26T11:47:24.428Z,992.14
2019-04-26T11:48:25.575Z,992.16
2019-04-26T11:49:24.395Z,992.14
2019-04-26T11:50:23.375Z,992.13
2019-04-26T11:51:27.145Z,992.17
2019-04-26T11:52:23.359Z,992.15
2019-04-26T11:53:23.364Z,992.11
2019-04-26T11:54:23.331Z,992.12
2019-04-26T11:55:25.434Z,992.07
2019-04-26T11:56:24.312Z,992.06
2019-04-26T11:57:23.301Z,992.08
2019-04-26T11:58:23.781Z,992.07
2019-04-26T11:59:23.398Z,992.08
2019-04-26T12:00:23.263Z,992.07
2019-04-26T12:01:23.256Z,992.01
2019-04-26T12:02:23.242Z,992.02
2019-04-26T12:03:24.823Z,991.97
2019-04-26T12:04:23.217Z,992.02
2019-04-26T12:05:23.225Z,992.03
2019-04-26T12:06:23.194Z,992.04
2019-04-26T12:07:23.215Z,992.03
2019-04-26T12:08:23.175Z,991.99
2019-04-26T12:09:23.224Z,992.01
2019-04-26T12:10:23.150Z,991.97
2019-04-26T12:11:30.358Z,991.98
2019-04-26T12:12:24.123Z,992.00
2019-04-26T12:13:25.104Z,991.96
2019-04-26T12:14:23.106Z,991.96
2019-04-26T12:15:30.070Z,991.96
2019-04-26T12:16:24.104Z,992.00
2019-04-26T12:17:23.078Z,992.06
2019-04-26T12:18:23.125Z,992.05
2019-04-26T12:19:23.046Z,992.05
2019-04-26T12:20:26.780Z,992.05
2019-04-26T12:21:24.030Z,992.02
2019-04-26T12:22:23.035Z,992.05
2019-04-26T12:23:23.000Z,992.00
2019-04-26T12:24:25.301Z,992.02
2019-04-26T12:25:23.976Z,991.98
2019-04-26T12:26:23.118Z,992.02
2019-04-26T12:27:26.466Z,991.99
2019-04-26T12:28:23.957Z,991.95
2019-04-26T12:29:22.932Z,991.99
2019-04-26T12:30:26.392Z,992.02